Seymour Johnson Air Force Base
KGSB : now visible

Airfield :











YOU CAN JOIN US ON...

 
LOGIN :

Register | Disclaimer

   EN    FR    IT 

 









Legend :    VFR   Marginal VFR   IFR   Intensive IFR   Very Intensive IFR
Visi :
Ceiling :
>= 8 km
>= 3000ft
5 to 8 km
1000 to 3000 ft
1500m to 5 km
500 to 1000 ft
800 to 1500m
200 to 500 ft
< 800m
< 200 ft
Symbols :   Thunderstorms  Fog  Heavy snow  Heavy precipitations  Wind > 20 kt







- Airport Elevation : 109 ft


KGSB - Seymour Johnson Air Force Base

CURRENT METAR :
  • 210356Z AUTO 21003KT 10SM BKN120 21/20 A2993 RMK AO2 RAE13 SLP137 P0001 T02090195 $

EXPIRED METARs :
  • 210313Z AUTO 17006KT 10SM SCT085 BKN110 BKN130 21/19 A2993 RMK AO2 RAE13 SLP137 $
  • 210256Z 16009KT 10SM -RA OVC070 21/19 A2994 RMK AO2A TSE00 SLP141 P0009 60017 T02080194 50019 $
  • 210204Z 22010KT 3SM -RA BR FEW030 BKN060 OVC150 22/20 A2995 RMK AO2A TSE00 SLP144 $
  • 210144Z 24019G31KT 7SM -TSRA SCT029CB SCT070 BKN150 26/19 A2994 RMK AO2A TSB29 SLP141 $
  • 210140Z 24023G31KT 10SM TS FEW030 SCT070CB BKN150 27/21 A2993 RMK AO2A WSHFT 30 TSB29 PRESRR SLP137 $

TAF TAF KGSB
Valid from the 21 at 04:00 until the 22 at 10:00 UTC


210400Z 2104/2210 22009KT 9999 SCT100 QNH2989INS
BECMG 2110/2111 36009KT 9999 SKC QNH2990INS
BECMG 2202/2203 08009KT 9999 SCT050 QNH3004INS TX30/2120Z TN19/2111Z
KZDC FIR / North America



MET'MAP, your aeronautical weather chart ! - Copyright ORBIFLY December 2007 - Disclaimer

ORBIFLY MET'MAP TEAM :

Programming & Development : Alexandra Zaïnal
Concept & Development : Baudouin d'Aumeries
Co-Development & Prog : Marc-Olivier Méhu
Technical & hardware support : Manuel Goepfert

Contact : metmap@orbifly.com




SOURCES & CREDITS :

   NOAA       Earth
Advisory